createdAt,value
2018-12-03T00:00:43.906Z,995.00
2018-12-03T00:01:43.936Z,995.00
2018-12-03T00:02:43.891Z,994.93
2018-12-03T00:03:43.877Z,994.97
2018-12-03T00:04:43.875Z,994.99
2018-12-03T00:05:43.858Z,995.00
2018-12-03T00:06:43.859Z,995.01
2018-12-03T00:07:43.829Z,995.04
2018-12-03T00:08:43.841Z,995.01
2018-12-03T00:09:43.810Z,995.01
2018-12-03T00:10:43.800Z,995.01
2018-12-03T00:11:43.781Z,995.00
2018-12-03T00:12:43.777Z,994.99
2018-12-03T00:13:43.765Z,994.95
2018-12-03T00:14:43.760Z,994.99
2018-12-03T00:15:43.825Z,995.00
2018-12-03T00:16:43.734Z,995.01
2018-12-03T00:17:43.722Z,994.99
2018-12-03T00:18:43.709Z,995.00
2018-12-03T00:19:43.706Z,995.01
2018-12-03T00:20:49.316Z,995.02
2018-12-03T00:21:43.671Z,995.01
2018-12-03T00:22:43.661Z,994.99
2018-12-03T00:23:43.654Z,995.01
2018-12-03T00:24:43.651Z,995.01
2018-12-03T00:25:43.632Z,994.99
2018-12-03T00:26:43.614Z,995.01
2018-12-03T00:27:43.611Z,994.98
2018-12-03T00:28:43.592Z,994.95
2018-12-03T00:29:43.625Z,994.98
2018-12-03T00:30:43.574Z,994.98
2018-12-03T00:31:43.564Z,994.97
2018-12-03T00:32:43.548Z,994.96
2018-12-03T00:33:43.545Z,995.03
2018-12-03T00:34:43.526Z,994.98
2018-12-03T00:35:43.531Z,995.01
2018-12-03T00:36:43.516Z,995.08
2018-12-03T00:37:43.494Z,995.06
2018-12-03T00:38:43.486Z,995.08
2018-12-03T00:39:43.474Z,995.09
2018-12-03T00:40:43.457Z,995.06
2018-12-03T00:41:43.488Z,995.04
2018-12-03T00:42:43.438Z,995.00
2018-12-03T00:43:43.425Z,995.02
2018-12-03T00:44:43.442Z,994.98
2018-12-03T00:45:43.401Z,995.00
2018-12-03T00:46:43.402Z,994.92
2018-12-03T00:47:43.393Z,994.95
2018-12-03T00:48:43.373Z,994.95
2018-12-03T00:49:43.360Z,995.00
2018-12-03T00:50:43.369Z,994.99
2018-12-03T00:51:43.344Z,994.96
2018-12-03T00:52:43.391Z,994.94
2018-12-03T00:53:43.331Z,994.92
2018-12-03T00:54:43.909Z,994.98
2018-12-03T00:55:43.298Z,994.93
2018-12-03T00:56:43.331Z,994.97
2018-12-03T00:57:43.269Z,994.96
2018-12-03T00:58:43.278Z,994.93
2018-12-03T00:59:43.254Z,994.99
2018-12-03T01:00:43.329Z,995.00
2018-12-03T01:01:43.226Z,994.98
2018-12-03T01:02:43.218Z,994.98
2018-12-03T01:03:43.216Z,995.00
2018-12-03T01:04:43.193Z,995.02
2018-12-03T01:05:43.193Z,995.06
2018-12-03T01:06:43.173Z,995.06
2018-12-03T01:07:43.174Z,995.05
2018-12-03T01:08:43.154Z,995.09
2018-12-03T01:09:43.138Z,995.07
2018-12-03T01:10:43.140Z,995.05
2018-12-03T01:11:43.117Z,995.03
2018-12-03T01:12:43.120Z,995.10
2018-12-03T01:13:43.108Z,995.04
2018-12-03T01:14:43.115Z,995.05
2018-12-03T01:15:43.083Z,995.07
2018-12-03T01:16:43.077Z,995.06
2018-12-03T01:17:43.054Z,995.04
2018-12-03T01:18:43.051Z,995.00
2018-12-03T01:19:43.038Z,995.04
2018-12-03T01:20:43.040Z,995.04
2018-12-03T01:21:43.026Z,995.06
2018-12-03T01:22:43.006Z,994.99
2018-12-03T01:23:42.984Z,995.01
2018-12-03T01:24:42.972Z,995.02
2018-12-03T01:25:42.959Z,995.07
2018-12-03T01:26:42.969Z,995.11
2018-12-03T01:27:42.938Z,995.11
2018-12-03T01:28:42.926Z,995.09
2018-12-03T01:29:42.934Z,995.07
2018-12-03T01:30:42.912Z,995.11
2018-12-03T01:31:42.901Z,995.12
2018-12-03T01:32:42.893Z,995.12
2018-12-03T01:33:42.877Z,995.13
2018-12-03T01:34:42.859Z,995.10
2018-12-03T01:35:42.868Z,995.16
2018-12-03T01:36:42.847Z,995.20
2018-12-03T01:37:42.853Z,995.20
2018-12-03T01:38:42.822Z,995.23
2018-12-03T01:39:42.821Z,995.17
2018-12-03T01:40:42.794Z,995.20
2018-12-03T01:41:42.790Z,995.21
2018-12-03T01:42:42.778Z,995.24
2018-12-03T01:43:42.889Z,995.21
2018-12-03T01:44:42.749Z,995.19
2018-12-03T01:45:42.741Z,995.24
2018-12-03T01:46:42.731Z,995.25
2018-12-03T01:47:42.722Z,995.23
2018-12-03T01:48:42.711Z,995.22
2018-12-03T01:49:42.705Z,995.27
2018-12-03T01:50:42.691Z,995.23
2018-12-03T01:51:42.680Z,995.20
2018-12-03T01:52:42.662Z,995.23
2018-12-03T01:53:42.653Z,995.26
2018-12-03T01:54:42.656Z,995.23
2018-12-03T01:55:42.635Z,995.19
2018-12-03T01:56:42.619Z,995.19
2018-12-03T01:57:42.612Z,995.23
2018-12-03T01:58:42.602Z,995.18
2018-12-03T01:59:42.591Z,995.20
2018-12-03T02:00:42.588Z,995.16
2018-12-03T02:01:42.570Z,995.11
2018-12-03T02:02:42.560Z,995.15
2018-12-03T02:03:42.546Z,995.11
2018-12-03T02:04:42.530Z,995.11
2018-12-03T02:05:42.581Z,995.05
2018-12-03T02:06:42.516Z,995.08
2018-12-03T02:07:42.505Z,995.10
2018-12-03T02:08:42.491Z,995.04
2018-12-03T02:09:42.478Z,995.07
2018-12-03T02:10:42.474Z,995.04
2018-12-03T02:11:42.474Z,995.04
2018-12-03T02:12:42.446Z,995.05
2018-12-03T02:13:42.448Z,995.01
2018-12-03T02:14:42.427Z,995.01
2018-12-03T02:15:42.408Z,995.01
2018-12-03T02:16:42.414Z,995.02
2018-12-03T02:17:42.402Z,995.00
2018-12-03T02:18:42.384Z,994.97
2018-12-03T02:19:42.366Z,994.98
2018-12-03T02:20:42.356Z,994.98
2018-12-03T02:21:42.349Z,995.01
2018-12-03T02:22:42.347Z,995.06
2018-12-03T02:23:42.328Z,995.07
2018-12-03T02:24:42.317Z,995.08
2018-12-03T02:25:42.300Z,995.10
2018-12-03T02:26:42.294Z,995.09
2018-12-03T02:27:42.289Z,995.09
2018-12-03T02:28:42.930Z,995.13
2018-12-03T02:29:42.260Z,995.10
2018-12-03T02:30:42.245Z,995.11
2018-12-03T02:31:42.239Z,995.10
2018-12-03T02:32:42.260Z,995.08
2018-12-03T02:33:42.211Z,995.13
2018-12-03T02:34:42.198Z,995.12
2018-12-03T02:35:42.189Z,995.11
2018-12-03T02:36:42.183Z,995.11
2018-12-03T02:37:42.175Z,995.14
2018-12-03T02:38:42.172Z,995.11
2018-12-03T02:39:42.158Z,995.06
2018-12-03T02:40:42.145Z,995.05
2018-12-03T02:41:42.125Z,995.07
2018-12-03T02:42:42.112Z,995.08
2018-12-03T02:43:42.100Z,995.07
2018-12-03T02:44:42.092Z,995.11
2018-12-03T02:45:42.085Z,995.09
2018-12-03T02:46:42.077Z,995.08
2018-12-03T02:47:42.062Z,995.10
2018-12-03T02:48:42.055Z,995.06
2018-12-03T02:49:42.045Z,995.05
2018-12-03T02:50:42.055Z,995.08
2018-12-03T02:51:42.020Z,995.14
2018-12-03T02:52:42.000Z,995.15
2018-12-03T02:53:41.997Z,995.14
2018-12-03T02:54:41.985Z,995.11
2018-12-03T02:55:41.974Z,995.16
2018-12-03T02:56:41.966Z,995.13
2018-12-03T02:57:41.948Z,995.10
2018-12-03T02:58:41.935Z,995.10
2018-12-03T02:59:41.929Z,995.10
2018-12-03T03:00:41.914Z,995.11
2018-12-03T03:01:41.924Z,995.13
2018-12-03T03:02:41.909Z,995.16
2018-12-03T03:03:41.884Z,995.18
2018-12-03T03:04:41.870Z,995.23
2018-12-03T03:05:41.859Z,995.26
2018-12-03T03:06:41.845Z,995.24
2018-12-03T03:07:41.848Z,995.24
2018-12-03T03:08:41.844Z,995.23
2018-12-03T03:09:41.814Z,995.22
2018-12-03T03:10:41.812Z,995.24
2018-12-03T03:11:41.797Z,995.22
2018-12-03T03:12:41.950Z,995.22
2018-12-03T03:13:41.775Z,995.18
2018-12-03T03:14:41.763Z,995.17
2018-12-03T03:15:41.752Z,995.18
2018-12-03T03:16:41.736Z,995.20
2018-12-03T03:17:41.774Z,995.16
2018-12-03T03:18:41.714Z,995.17
2018-12-03T03:19:41.711Z,995.15
2018-12-03T03:20:41.694Z,995.14
2018-12-03T03:21:41.682Z,995.16
2018-12-03T03:22:41.675Z,995.16
2018-12-03T03:23:41.681Z,995.15
2018-12-03T03:24:41.701Z,995.17
2018-12-03T03:25:41.644Z,995.19
2018-12-03T03:26:41.630Z,995.16
2018-12-03T03:27:41.613Z,995.14
2018-12-03T03:28:41.610Z,995.12
2018-12-03T03:29:41.594Z,995.14
2018-12-03T03:30:41.598Z,995.12
2018-12-03T03:31:41.577Z,995.13
2018-12-03T03:32:41.571Z,995.14
2018-12-03T03:33:41.583Z,995.15
2018-12-03T03:34:41.538Z,995.13
2018-12-03T03:35:41.594Z,995.10
2018-12-03T03:36:41.518Z,995.09
2018-12-03T03:37:41.504Z,995.12
2018-12-03T03:38:41.492Z,995.10
2018-12-03T03:39:41.483Z,995.08
2018-12-03T03:40:41.474Z,995.06
2018-12-03T03:41:41.468Z,995.06
2018-12-03T03:42:41.452Z,995.10
2018-12-03T03:43:41.440Z,995.06
2018-12-03T03:44:41.437Z,995.11
2018-12-03T03:45:41.420Z,995.06
2018-12-03T03:46:41.415Z,995.08
2018-12-03T03:47:41.442Z,995.07
2018-12-03T03:48:41.400Z,995.07
2018-12-03T03:49:41.381Z,995.05
2018-12-03T03:50:41.360Z,995.05
2018-12-03T03:51:41.350Z,995.06
2018-12-03T03:52:41.365Z,995.07
2018-12-03T03:53:41.329Z,995.07
2018-12-03T03:54:41.316Z,995.06
2018-12-03T03:55:41.307Z,995.03
2018-12-03T03:56:41.297Z,994.98
2018-12-03T03:57:41.353Z,995.04
2018-12-03T03:58:41.353Z,995.04
2018-12-03T03:59:41.266Z,995.09
2018-12-03T04:00:41.253Z,995.07
2018-12-03T04:01:41.244Z,995.13
2018-12-03T04:02:41.461Z,995.10
2018-12-03T04:03:41.220Z,995.12
2018-12-03T04:04:41.213Z,995.11
2018-12-03T04:05:41.218Z,995.11
2018-12-03T04:06:41.183Z,995.09
2018-12-03T04:07:41.175Z,995.13
2018-12-03T04:08:41.210Z,995.11
2018-12-03T04:09:41.163Z,995.12
2018-12-03T04:10:41.140Z,995.07
2018-12-03T04:11:41.129Z,995.09
2018-12-03T04:12:41.120Z,995.08
2018-12-03T04:13:41.132Z,995.09
2018-12-03T04:14:41.107Z,995.08
2018-12-03T04:15:41.086Z,995.05
2018-12-03T04:16:41.074Z,995.12
2018-12-03T04:17:41.072Z,995.05
2018-12-03T04:18:41.053Z,995.05
2018-12-03T04:19:41.051Z,995.11
2018-12-03T04:20:41.031Z,995.13
2018-12-03T04:21:41.023Z,995.09
2018-12-03T04:22:41.007Z,995.08
2018-12-03T04:23:41.001Z,995.09
2018-12-03T04:24:41.001Z,995.09
2018-12-03T04:25:40.983Z,995.07
2018-12-03T04:26:40.964Z,995.03
2018-12-03T04:27:40.956Z,995.03
2018-12-03T04:28:40.942Z,995.03
2018-12-03T04:29:40.938Z,994.99
2018-12-03T04:30:40.944Z,994.99
2018-12-03T04:31:40.908Z,995.01
2018-12-03T04:32:40.902Z,994.92
2018-12-03T04:33:40.911Z,994.92
2018-12-03T04:34:40.877Z,994.95
2018-12-03T04:35:40.865Z,994.94
2018-12-03T04:36:40.870Z,994.87
2018-12-03T04:37:40.847Z,994.89
2018-12-03T04:38:40.847Z,994.88
2018-12-03T04:39:40.825Z,994.86
2018-12-03T04:40:40.811Z,994.85
2018-12-03T04:41:40.835Z,994.83
2018-12-03T04:42:40.790Z,994.79
2018-12-03T04:43:40.777Z,994.80
2018-12-03T04:44:40.832Z,994.81
2018-12-03T04:45:40.755Z,994.77
2018-12-03T04:46:40.772Z,994.82
2018-12-03T04:47:40.744Z,994.83
2018-12-03T04:48:40.725Z,994.84
2018-12-03T04:49:40.715Z,994.83
2018-12-03T04:50:40.709Z,994.86
2018-12-03T04:51:40.692Z,994.90
2018-12-03T04:52:40.710Z,994.85
2018-12-03T04:53:40.680Z,994.87
2018-12-03T04:54:40.658Z,994.89
2018-12-03T04:55:40.647Z,994.86
2018-12-03T04:56:40.639Z,994.86
2018-12-03T04:57:40.628Z,994.90
2018-12-03T04:58:40.638Z,994.84
2018-12-03T04:59:40.607Z,994.87
2018-12-03T05:00:40.603Z,994.86
2018-12-03T05:01:40.585Z,994.86
2018-12-03T05:02:40.586Z,994.91
2018-12-03T05:03:40.560Z,994.86
2018-12-03T05:04:40.578Z,994.86
2018-12-03T05:05:40.538Z,994.89
2018-12-03T05:06:40.527Z,994.87
2018-12-03T05:07:40.522Z,994.85
2018-12-03T05:08:40.520Z,994.81
2018-12-03T05:09:40.503Z,994.81
2018-12-03T05:10:40.488Z,994.85
2018-12-03T05:11:40.475Z,994.81
2018-12-03T05:12:40.466Z,994.82
2018-12-03T05:13:40.457Z,994.80
2018-12-03T05:14:40.470Z,994.83
2018-12-03T05:15:40.432Z,994.82
2018-12-03T05:16:40.432Z,994.82
2018-12-03T05:17:40.413Z,994.79
2018-12-03T05:18:40.398Z,994.78
2018-12-03T05:19:40.386Z,994.81
2018-12-03T05:20:40.380Z,994.77
2018-12-03T05:21:40.369Z,994.74
2018-12-03T05:22:40.370Z,994.76
2018-12-03T05:23:40.341Z,994.74
2018-12-03T05:24:40.328Z,994.75
2018-12-03T05:25:40.334Z,994.74
2018-12-03T05:26:40.311Z,994.71
2018-12-03T05:27:40.299Z,994.71
2018-12-03T05:28:40.290Z,994.76
2018-12-03T05:29:40.331Z,994.75
2018-12-03T05:30:40.279Z,994.69
2018-12-03T05:31:40.259Z,994.71
2018-12-03T05:32:40.283Z,994.68
2018-12-03T05:33:40.253Z,994.65
2018-12-03T05:34:40.220Z,994.67
2018-12-03T05:35:40.220Z,994.61
2018-12-03T05:36:40.204Z,994.64
2018-12-03T05:37:40.198Z,994.63
2018-12-03T05:38:40.182Z,994.63
2018-12-03T05:39:40.183Z,994.59
2018-12-03T05:40:40.154Z,994.59
2018-12-03T05:41:40.143Z,994.61
2018-12-03T05:42:40.133Z,994.59
2018-12-03T05:43:40.158Z,994.62
2018-12-03T05:44:40.111Z,994.61
2018-12-03T05:45:40.109Z,994.60
2018-12-03T05:46:40.100Z,994.57
2018-12-03T05:47:40.079Z,994.62
2018-12-03T05:48:40.072Z,994.65
2018-12-03T05:49:40.065Z,994.62
2018-12-03T05:50:40.056Z,994.61
2018-12-03T05:51:40.046Z,994.66
2018-12-03T05:52:40.026Z,994.69
2018-12-03T05:53:40.020Z,994.62
2018-12-03T05:54:40.022Z,994.66
2018-12-03T05:55:39.997Z,994.62
2018-12-03T05:56:39.987Z,994.67
2018-12-03T05:57:40.000Z,994.71
2018-12-03T05:58:39.966Z,994.69
2018-12-03T05:59:39.965Z,994.69
2018-12-03T06:00:39.985Z,994.76
2018-12-03T06:01:39.934Z,994.73
2018-12-03T06:02:39.914Z,994.70
2018-12-03T06:03:39.931Z,994.73
2018-12-03T06:04:39.915Z,994.75
2018-12-03T06:05:39.896Z,994.75
2018-12-03T06:06:39.891Z,994.70
2018-12-03T06:07:39.865Z,994.70
2018-12-03T06:08:39.887Z,994.72
2018-12-03T06:09:39.844Z,994.66
2018-12-03T06:10:39.858Z,994.68
2018-12-03T06:11:39.821Z,994.67
2018-12-03T06:12:39.840Z,994.68
2018-12-03T06:13:39.806Z,994.62
2018-12-03T06:14:39.854Z,994.63
2018-12-03T06:15:39.841Z,994.59
2018-12-03T06:16:40.438Z,994.59
2018-12-03T06:17:39.763Z,994.63
2018-12-03T06:18:39.741Z,994.64
2018-12-03T06:19:39.767Z,994.67
2018-12-03T06:20:39.739Z,994.69
2018-12-03T06:21:39.708Z,994.71
2018-12-03T06:22:39.699Z,994.68
2018-12-03T06:23:39.688Z,994.64
2018-12-03T06:24:39.675Z,994.68
2018-12-03T06:25:39.681Z,994.71
2018-12-03T06:26:39.656Z,994.67
2018-12-03T06:27:39.643Z,994.63
2018-12-03T06:28:39.631Z,994.64
2018-12-03T06:29:39.634Z,994.66
2018-12-03T06:30:39.608Z,994.62
2018-12-03T06:31:39.598Z,994.67
2018-12-03T06:32:39.597Z,994.67
2018-12-03T06:33:39.583Z,994.65
2018-12-03T06:34:39.579Z,994.62
2018-12-03T06:35:39.559Z,994.65
2018-12-03T06:36:39.546Z,994.62
2018-12-03T06:37:39.548Z,994.59
2018-12-03T06:38:39.594Z,994.67
2018-12-03T06:39:39.514Z,994.62
2018-12-03T06:40:39.503Z,994.58
2018-12-03T06:41:39.502Z,994.57
2018-12-03T06:42:39.487Z,994.57
2018-12-03T06:43:39.474Z,994.59
2018-12-03T06:44:39.464Z,994.53
2018-12-03T06:45:39.470Z,994.50
2018-12-03T06:46:39.969Z,994.52
2018-12-03T06:47:39.465Z,994.51
2018-12-03T06:48:39.415Z,994.51
2018-12-03T06:49:40.320Z,994.52
2018-12-03T06:50:39.405Z,994.57
2018-12-03T06:51:39.402Z,994.53
2018-12-03T06:52:39.370Z,994.53
2018-12-03T06:53:39.375Z,994.53
2018-12-03T06:54:39.352Z,994.51
2018-12-03T06:55:39.348Z,994.56
2018-12-03T06:56:39.332Z,994.50
2018-12-03T06:57:39.331Z,994.55
2018-12-03T06:58:39.320Z,994.56
2018-12-03T06:59:39.294Z,994.50
2018-12-03T07:00:39.290Z,994.49
2018-12-03T07:01:39.280Z,994.55
2018-12-03T07:02:39.267Z,994.55
2018-12-03T07:03:39.248Z,994.55
2018-12-03T07:04:39.246Z,994.61
2018-12-03T07:05:39.229Z,994.62
2018-12-03T07:06:39.226Z,994.61
2018-12-03T07:07:39.208Z,994.64
2018-12-03T07:08:39.196Z,994.62
2018-12-03T07:09:39.209Z,994.62
2018-12-03T07:10:39.182Z,994.64
2018-12-03T07:11:39.159Z,994.58
2018-12-03T07:12:39.164Z,994.60
2018-12-03T07:13:39.146Z,994.56
2018-12-03T07:14:39.146Z,994.60
2018-12-03T07:15:39.134Z,994.60
2018-12-03T07:16:39.106Z,994.62
2018-12-03T07:17:39.096Z,994.64
2018-12-03T07:18:39.093Z,994.65
2018-12-03T07:19:39.128Z,994.66
2018-12-03T07:20:39.070Z,994.67
2018-12-03T07:21:39.051Z,994.69
2018-12-03T07:22:39.046Z,994.71
2018-12-03T07:23:39.029Z,994.71
2018-12-03T07:24:39.027Z,994.72
2018-12-03T07:25:39.045Z,994.74
2018-12-03T07:26:39.007Z,994.76
2018-12-03T07:27:38.984Z,994.75
2018-12-03T07:28:38.978Z,994.79
2018-12-03T07:29:39.034Z,994.76
2018-12-03T07:30:38.975Z,994.78
2018-12-03T07:31:38.987Z,994.77
2018-12-03T07:32:38.971Z,994.81
2018-12-03T07:33:38.925Z,994.78
2018-12-03T07:34:38.998Z,994.75
2018-12-03T07:35:38.910Z,994.78
2018-12-03T07:36:38.900Z,994.81
2018-12-03T07:37:38.902Z,994.82
2018-12-03T07:38:38.868Z,994.86
2018-12-03T07:39:38.858Z,994.87
2018-12-03T07:40:38.852Z,994.93
2018-12-03T07:41:39.484Z,994.83
2018-12-03T07:42:39.482Z,994.88
2018-12-03T07:43:38.814Z,994.86
2018-12-03T07:44:38.806Z,994.81
2018-12-03T07:45:38.802Z,994.87
2018-12-03T07:46:38.784Z,994.80
2018-12-03T07:47:38.802Z,994.80
2018-12-03T07:48:38.763Z,994.74
2018-12-03T07:49:38.748Z,994.70
2018-12-03T07:50:38.765Z,994.79
2018-12-03T07:51:38.726Z,994.78
2018-12-03T07:52:38.810Z,994.77
2018-12-03T07:53:38.715Z,994.74
2018-12-03T07:54:38.897Z,994.78
2018-12-03T07:55:38.685Z,994.79
2018-12-03T07:56:38.706Z,994.82
2018-12-03T07:57:38.657Z,994.80
2018-12-03T07:58:38.671Z,994.78
2018-12-03T07:59:38.686Z,994.74
2018-12-03T08:00:38.631Z,994.74
2018-12-03T08:01:38.614Z,994.78
2018-12-03T08:02:38.647Z,994.78
2018-12-03T08:03:38.592Z,994.77
2018-12-03T08:04:38.592Z,994.77
2018-12-03T08:05:38.573Z,994.75
2018-12-03T08:06:38.565Z,994.78
2018-12-03T08:07:38.553Z,994.72
2018-12-03T08:08:38.678Z,994.76
2018-12-03T08:09:38.557Z,994.75
2018-12-03T08:10:38.517Z,994.70
2018-12-03T08:11:38.506Z,994.75
2018-12-03T08:12:38.493Z,994.78
2018-12-03T08:13:38.486Z,994.79
2018-12-03T08:14:38.489Z,994.85
2018-12-03T08:15:38.461Z,994.86
2018-12-03T08:16:39.218Z,994.84
2018-12-03T08:17:38.441Z,994.80
2018-12-03T08:18:38.432Z,994.82
2018-12-03T08:19:38.428Z,994.79
2018-12-03T08:20:38.410Z,994.75
2018-12-03T08:21:38.408Z,994.71
2018-12-03T08:22:38.383Z,994.68
2018-12-03T08:23:38.377Z,994.66
2018-12-03T08:24:38.368Z,994.66
2018-12-03T08:25:38.357Z,994.71
2018-12-03T08:26:38.372Z,994.71
2018-12-03T08:27:38.333Z,994.74
2018-12-03T08:28:39.009Z,994.78
2018-12-03T08:29:38.376Z,994.78
2018-12-03T08:30:38.293Z,994.77
2018-12-03T08:31:38.287Z,994.74
2018-12-03T08:32:38.287Z,994.73
2018-12-03T08:33:38.271Z,994.71
2018-12-03T08:34:38.252Z,994.74
2018-12-03T08:35:38.281Z,994.74
2018-12-03T08:36:38.235Z,994.73
2018-12-03T08:37:38.222Z,994.69
2018-12-03T08:38:39.245Z,994.74
2018-12-03T08:39:38.198Z,994.79
2018-12-03T08:40:38.187Z,994.80
2018-12-03T08:41:38.185Z,994.78
2018-12-03T08:42:38.175Z,994.77
2018-12-03T08:43:38.150Z,994.75
2018-12-03T08:44:38.145Z,994.73
2018-12-03T08:45:38.131Z,994.74
2018-12-03T08:46:38.190Z,994.75
2018-12-03T08:47:38.114Z,994.73
2018-12-03T08:48:38.146Z,994.74
2018-12-03T08:49:38.158Z,994.74
2018-12-03T08:50:38.205Z,994.79
2018-12-03T08:51:38.163Z,994.79
2018-12-03T08:52:38.056Z,994.77
2018-12-03T08:53:38.059Z,994.79
2018-12-03T08:54:38.033Z,994.78
2018-12-03T08:55:38.023Z,994.76
2018-12-03T08:56:38.043Z,994.76
2018-12-03T08:57:38.008Z,994.77
2018-12-03T08:58:37.986Z,994.76
2018-12-03T08:59:37.981Z,994.75
2018-12-03T09:00:37.967Z,994.72
2018-12-03T09:01:37.952Z,994.72
2018-12-03T09:02:37.952Z,994.74
2018-12-03T09:03:37.939Z,994.72
2018-12-03T09:04:37.916Z,994.72
2018-12-03T09:05:37.944Z,994.73
2018-12-03T09:06:37.897Z,994.76
2018-12-03T09:07:37.884Z,994.74
2018-12-03T09:08:37.920Z,994.74
2018-12-03T09:09:37.868Z,994.68
2018-12-03T09:10:37.858Z,994.70
2018-12-03T09:11:37.841Z,994.72
2018-12-03T09:12:38.250Z,994.70
2018-12-03T09:13:37.820Z,994.73
2018-12-03T09:14:37.861Z,994.69
2018-12-03T09:15:37.801Z,994.65
2018-12-03T09:16:37.836Z,994.62
2018-12-03T09:17:37.781Z,994.61
2018-12-03T09:18:37.769Z,994.63
2018-12-03T09:19:37.757Z,994.65
2018-12-03T09:20:37.769Z,994.72
2018-12-03T09:21:37.742Z,994.69
2018-12-03T09:22:37.731Z,994.73
2018-12-03T09:23:37.716Z,994.80
2018-12-03T09:24:37.707Z,994.85
2018-12-03T09:25:37.686Z,994.85
2018-12-03T09:26:37.686Z,994.87
2018-12-03T09:27:37.667Z,994.85
2018-12-03T09:28:37.653Z,994.81
2018-12-03T09:29:37.644Z,994.77
2018-12-03T09:30:37.656Z,994.76
2018-12-03T09:31:37.638Z,994.77
2018-12-03T09:32:37.626Z,994.75
2018-12-03T09:33:37.604Z,994.74
2018-12-03T09:34:37.588Z,994.76
2018-12-03T09:35:37.582Z,994.76
2018-12-03T09:36:37.584Z,994.75
2018-12-03T09:37:37.559Z,994.75
2018-12-03T09:38:37.544Z,994.75
2018-12-03T09:39:37.537Z,994.78
2018-12-03T09:40:37.524Z,994.79
2018-12-03T09:41:37.526Z,994.77
2018-12-03T09:42:37.517Z,994.73
2018-12-03T09:43:37.488Z,994.77
2018-12-03T09:44:37.477Z,994.77
2018-12-03T09:45:37.473Z,994.79
2018-12-03T09:46:37.461Z,994.79
2018-12-03T09:47:37.482Z,994.84
2018-12-03T09:48:37.440Z,994.87
2018-12-03T09:49:37.430Z,994.85
2018-12-03T09:50:37.412Z,994.82
2018-12-03T09:51:37.403Z,994.84
2018-12-03T09:52:37.674Z,994.76
2018-12-03T09:53:38.027Z,994.77
2018-12-03T09:54:37.373Z,994.80
2018-12-03T09:55:37.367Z,994.78
2018-12-03T09:56:37.405Z,994.80
2018-12-03T09:57:37.356Z,994.82
2018-12-03T09:58:37.327Z,994.77
2018-12-03T09:59:37.321Z,994.75
2018-12-03T10:00:37.319Z,994.75
2018-12-03T10:01:37.304Z,994.75
2018-12-03T10:02:37.297Z,994.72
2018-12-03T10:03:37.276Z,994.71
2018-12-03T10:04:37.261Z,994.77
2018-12-03T10:05:37.256Z,994.76
2018-12-03T10:06:37.251Z,994.72
2018-12-03T10:07:37.233Z,994.75
2018-12-03T10:08:37.221Z,994.72
2018-12-03T10:09:37.209Z,994.76
2018-12-03T10:10:37.194Z,994.72
2018-12-03T10:11:37.197Z,994.70
2018-12-03T10:12:37.182Z,994.71
2018-12-03T10:13:37.171Z,994.68
2018-12-03T10:14:37.148Z,994.65
2018-12-03T10:15:37.145Z,994.66
2018-12-03T10:16:37.132Z,994.67
2018-12-03T10:17:37.115Z,994.68
2018-12-03T10:18:37.141Z,994.63
2018-12-03T10:19:37.098Z,994.64
2018-12-03T10:20:42.083Z,994.67
2018-12-03T10:21:38.078Z,994.72
2018-12-03T10:22:37.061Z,994.70
2018-12-03T10:23:37.059Z,994.69
2018-12-03T10:24:37.048Z,994.69
2018-12-03T10:25:37.035Z,994.64
2018-12-03T10:26:37.018Z,994.70
2018-12-03T10:27:37.020Z,994.65
2018-12-03T10:28:37.001Z,994.64
2018-12-03T10:29:37.004Z,994.60
2018-12-03T10:30:36.987Z,994.56
2018-12-03T10:31:36.969Z,994.56
2018-12-03T10:32:36.954Z,994.56
2018-12-03T10:33:36.945Z,994.56
2018-12-03T10:34:36.966Z,994.54
2018-12-03T10:35:36.924Z,994.56
2018-12-03T10:36:36.909Z,994.53
2018-12-03T10:37:36.909Z,994.50
2018-12-03T10:38:36.890Z,994.56
2018-12-03T10:39:36.878Z,994.52
2018-12-03T10:40:36.880Z,994.55
2018-12-03T10:41:36.991Z,994.50
2018-12-03T10:42:36.849Z,994.47
2018-12-03T10:43:36.833Z,994.44
2018-12-03T10:44:36.834Z,994.50
2018-12-03T10:45:36.819Z,994.49
2018-12-03T10:46:36.800Z,994.49
2018-12-03T10:47:36.799Z,994.53
2018-12-03T10:48:36.781Z,994.57
2018-12-03T10:49:36.774Z,994.59
2018-12-03T10:50:36.768Z,994.61
2018-12-03T10:51:36.744Z,994.59
2018-12-03T10:52:36.735Z,994.56
2018-12-03T10:53:36.729Z,994.54
2018-12-03T10:54:36.713Z,994.56
2018-12-03T10:55:36.725Z,994.54
2018-12-03T10:56:36.702Z,994.55
2018-12-03T10:57:36.680Z,994.58
2018-12-03T10:58:36.669Z,994.59
2018-12-03T10:59:36.662Z,994.59
2018-12-03T11:00:36.650Z,994.54
2018-12-03T11:01:36.651Z,994.56
2018-12-03T11:02:36.629Z,994.56
2018-12-03T11:03:36.634Z,994.64
2018-12-03T11:04:36.608Z,994.58
2018-12-03T11:05:36.625Z,994.58
2018-12-03T11:06:36.599Z,994.63
2018-12-03T11:07:36.578Z,994.66
2018-12-03T11:08:36.575Z,994.64
2018-12-03T11:09:36.573Z,994.61
2018-12-03T11:10:36.546Z,994.65
2018-12-03T11:11:36.528Z,994.63
2018-12-03T11:12:36.529Z,994.64
2018-12-03T11:13:36.522Z,994.64
2018-12-03T11:14:36.501Z,994.63
2018-12-03T11:15:36.484Z,994.59
2018-12-03T11:16:36.478Z,994.59
2018-12-03T11:17:36.470Z,994.56
2018-12-03T11:18:36.493Z,994.58
2018-12-03T11:19:36.438Z,994.56
2018-12-03T11:20:36.437Z,994.55
2018-12-03T11:21:36.415Z,994.57
2018-12-03T11:22:36.405Z,994.47
2018-12-03T11:23:36.395Z,994.47
2018-12-03T11:24:36.591Z,994.48
2018-12-03T11:25:36.378Z,994.47
2018-12-03T11:26:36.363Z,994.46
2018-12-03T11:27:36.350Z,994.51
2018-12-03T11:28:36.344Z,994.49
2018-12-03T11:29:36.327Z,994.50
2018-12-03T11:30:36.340Z,994.50
2018-12-03T11:31:36.309Z,994.50
2018-12-03T11:32:36.301Z,994.54
2018-12-03T11:33:36.284Z,994.48
2018-12-03T11:34:36.276Z,994.47
2018-12-03T11:35:36.271Z,994.43
2018-12-03T11:36:36.256Z,994.40
2018-12-03T11:37:36.246Z,994.40
2018-12-03T11:38:36.229Z,994.47
2018-12-03T11:39:36.221Z,994.43
2018-12-03T11:40:36.221Z,994.40
2018-12-03T11:41:36.242Z,994.40
2018-12-03T11:42:36.187Z,994.38
2018-12-03T11:43:36.217Z,994.38
2018-12-03T11:44:36.165Z,994.35
2018-12-03T11:45:36.152Z,994.36
2018-12-03T11:46:36.149Z,994.32
2018-12-03T11:47:36.147Z,994.29
2018-12-03T11:48:36.121Z,994.35
2018-12-03T11:49:36.116Z,994.34
2018-12-03T11:50:36.097Z,994.32
2018-12-03T11:51:36.155Z,994.30
2018-12-03T11:52:36.078Z,994.31
2018-12-03T11:53:36.082Z,994.30
2018-12-03T11:54:36.061Z,994.30
2018-12-03T11:55:36.043Z,994.27
2018-12-03T11:56:36.037Z,994.26
2018-12-03T11:57:36.053Z,994.31
2018-12-03T11:58:36.044Z,994.30
2018-12-03T11:59:35.999Z,994.31
2018-12-03T12:00:36.023Z,994.26
2018-12-03T12:01:35.980Z,994.29
2018-12-03T12:02:35.972Z,994.29
2018-12-03T12:03:36.173Z,994.27
2018-12-03T12:04:35.948Z,994.35
2018-12-03T12:05:35.931Z,994.37
2018-12-03T12:06:35.921Z,994.36
2018-12-03T12:07:35.914Z,994.38
2018-12-03T12:08:35.899Z,994.39
2018-12-03T12:09:36.069Z,994.47
2018-12-03T12:10:35.877Z,994.39
2018-12-03T12:11:35.875Z,994.44
2018-12-03T12:12:35.854Z,994.38
2018-12-03T12:13:35.857Z,994.41
2018-12-03T12:14:35.838Z,994.44
2018-12-03T12:15:35.832Z,994.46
2018-12-03T12:16:35.819Z,994.44
2018-12-03T12:17:35.805Z,994.42
2018-12-03T12:18:35.850Z,994.42
2018-12-03T12:19:35.776Z,994.44
2018-12-03T12:20:35.766Z,994.45
2018-12-03T12:21:35.758Z,994.47
2018-12-03T12:22:35.749Z,994.48
2018-12-03T12:23:35.733Z,994.46
2018-12-03T12:24:36.479Z,994.48
2018-12-03T12:25:35.715Z,994.47
2018-12-03T12:26:36.548Z,994.47
2018-12-03T12:27:35.688Z,994.51
2018-12-03T12:28:38.201Z,994.54